Time;durP1;ratioP1;P1;durP2;ratioP2;P2;SDS_P1;SDS_P2;PMS_P1;PMS_P2;Temp;Humidity;BMP_temperature;BMP_pressure;BME280_temperature;BME280_humidity;BME280_pressure;Samples;Min_cycle;Max_cycle;Signal;HPM_P1;HPM_P2
2022/01/28 00:00:48;;;;;;;20.75;12.27;;;;;;;1.45;87.22;101115.03;4945123;28;20561;-77
2022/01/28 00:03:14;;;;;;;19.98;11.73;;;;;;;1.44;87.45;101118.50;4946722;28;20624;-77
2022/01/28 00:05:39;;;;;;;15.57;10.67;;;;;;;1.43;87.33;101121.97;4946135;28;20659;-78
2022/01/28 00:08:05;;;;;;;13.07;8.37;;;;;;;1.40;87.00;101111.59;4946479;28;20213;-78
2022/01/28 00:10:33;;;;;;;17.03;9.03;;;;;;;1.38;87.32;101113.34;4946325;28;20232;-81
2022/01/28 00:15:44;;;;;;;17.60;9.32;;;;;;;1.37;87.20;101124.53;4946348;28;20299;-78
2022/01/28 00:36:28;;;;;;;18.67;9.52;;;;;;;1.38;87.11;101128.88;4945859;28;20683;-78
2022/01/28 00:40:11;;;;;;;16.95;8.27;;;;;;;1.31;87.08;101101.25;4945826;28;20221;-79
2022/01/28 00:42:37;;;;;;;16.77;8.27;;;;;;;1.30;87.14;101104.72;5044752;28;20205;-82
2022/01/28 00:45:02;;;;;;;17.20;10.07;;;;;;;1.29;86.98;101101.25;5043283;28;20240;-82
2022/01/28 00:47:27;;;;;;;15.70;8.10;;;;;;;1.26;87.14;101087.47;4946011;28;20219;-76
2022/01/28 00:49:53;;;;;;;16.90;8.30;;;;;;;1.25;87.10;101096.09;4944993;28;20699;-79
2022/01/28 00:52:18;;;;;;;13.57;8.47;;;;;;;1.23;87.26;101092.66;4945999;28;20243;-76
2022/01/28 00:54:44;;;;;;;18.07;7.83;;;;;;;1.20;87.03;101087.47;4945718;28;20296;-76
2022/01/28 00:57:09;;;;;;;16.57;10.17;;;;;;;1.19;87.03;101090.91;4945365;28;20212;-78
2022/01/28 00:59:34;;;;;;;14.43;7.47;;;;;;;1.16;86.91;101103.88;4945320;29;20270;-76
2022/01/28 01:02:00;;;;;;;18.70;9.73;;;;;;;1.17;87.42;101105.59;4944960;28;20984;-79
2022/01/28 01:04:25;;;;;;;13.47;8.23;;;;;;;1.10;87.25;101108.19;4945838;28;20695;-81
2022/01/28 01:06:51;;;;;;;13.60;8.03;;;;;;;1.08;87.41;101101.28;4945418;28;20258;-78
2022/01/28 01:09:16;;;;;;;13.03;6.70;;;;;;;1.04;87.32;101096.97;4945049;29;20233;-79
2022/01/28 01:11:42;;;;;;;13.03;8.30;;;;;;;1.01;87.39;101113.38;4946030;28;20213;-82
2022/01/28 01:14:07;;;;;;;13.82;8.23;;;;;;;0.98;87.21;101115.97;4945698;28;20266;-82
2022/01/28 01:16:45;;;;;;;15.13;8.23;;;;;;;0.97;87.32;101115.94;4945211;28;20813;-80
2022/01/28 01:21:41;;;;;;;12.80;6.00;;;;;;;0.97;87.40;101110.78;4945408;28;20283;-81
2022/01/28 01:24:09;;;;;;;12.55;7.85;;;;;;;0.94;87.38;101105.59;4945502;28;20323;-79
2022/01/28 01:26:38;;;;;;;15.15;7.43;;;;;;;0.92;87.35;101117.66;4945372;28;20671;-79
2022/01/28 01:29:07;;;;;;;14.32;7.30;;;;;;;0.90;87.25;101125.44;4944693;28;21040;-80
2022/01/28 01:31:34;;;;;;;13.43;7.78;;;;;;;0.90;87.32;101135.78;4944344;28;21264;-81
2022/01/28 01:36:25;;;;;;;12.40;7.10;;;;;;;0.79;87.37;101135.78;4924955;28;20271;-79
2022/01/28 01:38:51;;;;;;;11.17;7.03;;;;;;;0.76;87.55;101145.28;4925667;29;20745;-79
2022/01/28 01:41:27;;;;;;;13.30;7.33;;;;;;;0.74;87.70;101147.84;4926213;29;20236;-79
2022/01/28 01:44:04;;;;;;;12.45;6.70;;;;;;;0.75;87.93;101151.28;4928328;28;20205;-79
2022/01/28 01:52:01;;;;;;;13.30;6.07;;;;;;;0.78;87.86;101149.56;4929496;29;20212;-80
2022/01/28 01:52:02;;;;;;;12.18;7.22;;;;;;;0.81;87.33;101147.00;4926854;28;20254;-80
2022/01/28 01:54:29;;;;;;;9.18;6.53;;;;;;;0.80;87.68;101144.41;4927258;29;20687;-79
2022/01/28 01:56:55;;;;;;;14.82;8.52;;;;;;;0.79;87.72;101160.78;4929496;29;20209;-78
2022/01/28 01:59:21;;;;;;;14.23;7.82;;;;;;;0.80;87.73;101170.28;4927623;29;20517;-79
2022/01/28 02:01:46;;;;;;;14.77;9.20;;;;;;;0.82;87.30;101165.97;4919476;29;21084;-78
2022/01/28 02:04:16;;;;;;;15.57;7.75;;;;;;;0.79;87.66;101168.56;4928482;28;20205;-78
2022/01/28 02:06:43;;;;;;;14.63;8.83;;;;;;;0.79;87.59;101158.22;4929718;28;20224;-79
2022/01/28 02:09:08;;;;;;;12.80;7.00;;;;;;;0.82;87.64;101171.13;4927956;29;20314;-76
2022/01/28 02:11:34;;;;;;;13.77;7.27;;;;;;;0.81;87.56;101162.53;4929305;29;20343;-76
2022/01/28 02:14:01;;;;;;;14.82;7.82;;;;;;;0.83;87.42;101170.28;4928745;29;20832;-76
2022/01/28 02:16:27;;;;;;;10.43;7.47;;;;;;;0.83;87.86;101170.28;4928885;29;20276;-76
2022/01/28 02:18:55;;;;;;;12.50;7.03;;;;;;;0.84;87.37;101179.78;4927978;29;20368;-77
2022/01/28 02:21:21;;;;;;;14.43;8.63;;;;;;;0.85;87.42;101173.72;4929018;28;20198;-77
2022/01/28 02:23:51;;;;;;;10.80;6.70;;;;;;;0.87;87.34;101188.38;4929399;29;20226;-77
2022/01/28 02:26:17;;;;;;;13.43;6.85;;;;;;;0.87;87.20;101195.28;4928681;29;20217;-77
2022/01/28 02:28:46;;;;;;;9.00;6.60;;;;;;;0.87;87.32;101198.75;4927998;28;20272;-77
2022/01/28 02:31:12;;;;;;;13.20;8.00;;;;;;;0.88;87.31;101199.59;4928491;29;20484;-80
2022/01/28 02:33:38;;;;;;;11.85;8.43;;;;;;;0.88;87.12;101215.13;4928416;29;20213;-78
2022/01/28 02:36:06;;;;;;;16.30;7.57;;;;;;;0.87;87.17;101218.56;4926055;28;20229;-79
2022/01/28 02:38:33;;;;;;;12.98;7.05;;;;;;;0.88;87.37;101223.72;4925983;28;20269;-77
2022/01/28 02:41:01;;;;;;;13.88;7.90;;;;;;;0.92;87.38;101229.81;4928622;29;20213;-77
2022/01/28 02:46:03;;;;;;;11.77;7.78;;;;;;;0.97;87.21;101225.47;4928098;28;20209;-80
2022/01/28 02:48:30;;;;;;;11.82;7.43;;;;;;;0.98;87.03;101216.88;4928736;29;20226;-77
2022/01/28 02:53:37;;;;;;;13.07;7.20;;;;;;;0.99;86.85;101202.19;4935059;28;20205;-78
2022/01/28 02:56:11;;;;;;;10.13;7.15;;;;;;;0.96;86.94;101209.97;4930395;29;20221;-77
2022/01/28 02:58:37;;;;;;;10.93;6.55;;;;;;;0.96;86.88;101210.81;4928402;28;20300;-77
2022/01/28 03:01:03;;;;;;;9.97;6.17;;;;;;;0.98;86.94;101213.41;4928867;29;20280;-77
2022/01/28 03:03:29;;;;;;;12.33;7.20;;;;;;;0.96;86.90;101204.78;4927308;29;20287;-77
2022/01/28 03:05:54;;;;;;;10.83;6.67;;;;;;;0.96;87.00;101202.19;4928301;29;20473;-77
2022/01/28 03:08:24;;;;;;;12.13;6.40;;;;;;;0.97;87.10;101201.31;4930610;29;20467;-77
2022/01/28 03:13:29;;;;;;;13.70;7.87;;;;;;;0.95;87.13;101211.69;4929231;28;20741;-78
2022/01/28 03:16:05;;;;;;;12.93;7.20;;;;;;;0.95;86.90;101206.50;4929706;29;20196;-81
2022/01/28 03:18:41;;;;;;;12.27;6.95;;;;;;;0.97;86.92;101207.34;4928580;29;20240;-77
2022/01/28 03:21:19;;;;;;;15.80;8.50;;;;;;;0.97;86.70;101204.78;4928404;29;20213;-77
2022/01/28 03:23:44;;;;;;;12.82;6.18;;;;;;;0.96;86.79;101199.59;4928372;28;20218;-80
2022/01/28 03:26:10;;;;;;;14.27;6.70;;;;;;;0.97;87.04;101199.59;4927363;29;20324;-77
2022/01/28 03:28:35;;;;;;;11.43;5.60;;;;;;;0.97;86.92;101198.75;4927541;29;20328;-79
2022/01/28 03:31:04;;;;;;;12.98;6.55;;;;;;;0.95;87.09;101206.50;5002738;23;20230;-77
2022/01/28 03:33:29;;;;;;;12.83;7.20;;;;;;;0.93;87.01;101197.88;5006326;28;20195;-77
2022/01/28 03:35:54;;;;;;;8.53;6.53;;;;;;;0.91;87.08;101196.16;5019141;28;20210;-77
2022/01/28 03:38:20;;;;;;;9.57;6.60;;;;;;;0.90;86.98;101204.78;5011092;28;20252;-77
2022/01/28 03:40:47;;;;;;;10.07;5.63;;;;;;;0.87;86.83;101208.22;5013129;28;20223;-78
2022/01/28 03:43:12;;;;;;;10.60;6.95;;;;;;;0.84;87.20;101214.25;5021818;28;20347;-78
2022/01/28 03:45:38;;;;;;;8.07;5.30;;;;;;;0.82;87.05;101213.38;5018777;28;20780;-77
2022/01/28 03:48:04;;;;;;;11.20;6.97;;;;;;;0.80;87.12;101219.41;5007859;28;20286;-77
2022/01/28 03:50:34;;;;;;;10.15;6.35;;;;;;;0.80;87.43;101212.50;5007317;28;20281;-77
2022/01/28 03:53:01;;;;;;;17.08;7.72;;;;;;;0.79;87.11;101221.16;5014413;28;20234;-77
2022/01/28 03:55:26;;;;;;;8.20;5.68;;;;;;;0.80;87.35;101222.84;5017924;28;20206;-77
2022/01/28 03:57:51;;;;;;;10.13;6.77;;;;;;;0.82;87.19;101215.13;5011586;28;20265;-77
2022/01/28 04:00:17;;;;;;;12.37;6.70;;;;;;;0.82;87.40;101225.47;5010120;28;20249;-77
2022/01/28 04:02:44;;;;;;;11.93;8.07;;;;;;;0.94;87.40;101219.44;5005693;28;20480;-77
2022/01/28 04:13:21;;;;;;;7.93;5.93;;;;;;;0.92;87.40;101241.84;5006178;28;20844;-77
2022/01/28 04:18:15;;;;;;;11.13;5.80;;;;;;;0.91;87.18;101242.72;5019391;28;20205;-77
2022/01/28 04:20:40;;;;;;;10.50;5.70;;;;;;;0.89;86.98;101245.28;5013648;28;20245;-77
2022/01/28 04:23:06;;;;;;;8.63;5.80;;;;;;;0.85;87.29;101241.84;5010011;28;20210;-78
2022/01/28 04:25:31;;;;;;;9.80;6.10;;;;;;;0.85;87.29;101244.44;5006578;28;20218;-77
2022/01/28 04:27:56;;;;;;;10.80;5.37;;;;;;;0.86;87.58;101246.19;5006519;28;20207;-77
2022/01/28 04:30:22;;;;;;;8.77;5.60;;;;;;;0.90;86.99;101248.75;5013404;28;20300;-77
2022/01/28 04:32:50;;;;;;;11.65;7.45;;;;;;;1.01;87.04;101260.84;5015358;28;20530;-78
2022/01/28 04:35:15;;;;;;;11.18;6.65;;;;;;;0.98;87.28;101260.84;5015085;28;20207;-78
2022/01/28 04:37:52;;;;;;;8.67;4.47;;;;;;;0.96;87.35;101265.16;5014850;28;20217;-78
2022/01/28 04:40:22;;;;;;;9.73;6.35;;;;;;;0.95;87.40;101268.59;5013557;28;20307;-78
2022/01/28 04:45:30;;;;;;;8.40;5.93;;;;;;;0.94;87.23;101256.50;5012348;28;20728;-78
2022/01/28 04:53:46;;;;;;;7.53;4.80;;;;;;;0.95;87.16;101260.00;5021051;28;20220;-78
2022/01/28 04:56:29;;;;;;;7.95;5.47;;;;;;;0.96;87.23;101274.63;5017118;28;20227;-78
2022/01/28 04:59:20;;;;;;;10.48;5.45;;;;;;;0.95;87.18;101270.34;5013551;28;20206;-78
2022/01/28 05:02:12;;;;;;;13.45;6.95;;;;;;;0.98;87.11;101285.88;5009337;28;20497;-78
2022/01/28 05:15:24;;;;;;;13.77;6.97;;;;;;;0.98;87.12;101298.81;5009033;28;20214;-78
2022/01/28 05:23:42;;;;;;;12.45;6.22;;;;;;;0.94;87.13;101302.22;5012626;28;20234;-78
2022/01/28 05:28:48;;;;;;;9.63;7.55;;;;;;;0.92;87.07;101311.69;5018350;28;20237;-78
2022/01/28 05:31:16;;;;;;;10.98;7.57;;;;;;;0.93;87.05;101322.06;5017180;28;20483;-78
2022/01/28 05:33:41;;;;;;;14.88;8.98;;;;;;;0.93;87.35;101314.31;5017163;28;20234;-78
2022/01/28 05:36:06;;;;;;;12.30;8.80;;;;;;;0.96;87.09;101319.47;5013672;28;20672;-78
2022/01/28 05:38:32;;;;;;;16.40;8.87;;;;;;;0.98;87.28;101322.94;5010122;28;20218;-78
2022/01/28 05:40:57;;;;;;;12.37;9.10;;;;;;;1.02;87.16;101316.91;5014878;28;21087;-78
2022/01/28 05:43:23;;;;;;;13.70;7.33;;;;;;;1.00;87.10;101321.25;5010442;28;20219;-78
2022/01/28 05:45:48;;;;;;;9.50;6.97;;;;;;;0.98;87.18;101329.84;5013342;28;20264;-78
2022/01/28 05:48:15;;;;;;;8.67;5.30;;;;;;;0.98;87.15;101324.69;5015943;28;20759;-78
2022/01/28 05:50:41;;;;;;;12.50;6.93;;;;;;;0.97;87.16;101328.97;5012916;28;20222;-78
2022/01/28 05:53:06;;;;;;;9.67;6.60;;;;;;;0.98;87.14;101320.34;5022095;28;20961;-78
2022/01/28 05:55:31;;;;;;;7.40;5.43;;;;;;;0.97;87.09;101322.94;5019177;28;20290;-78
2022/01/28 05:57:57;;;;;;;9.33;6.93;;;;;;;0.97;87.19;101331.56;5010613;28;20631;-78
2022/01/28 06:00:22;;;;;;;11.63;7.73;;;;;;;1.04;87.22;101335.91;5012958;28;20529;-78
2022/01/28 06:02:48;;;;;;;8.70;5.73;;;;;;;1.00;87.21;101334.19;5011158;28;20479;-78
2022/01/28 06:05:13;;;;;;;8.13;5.60;;;;;;;0.98;87.22;101324.69;5022304;28;20289;-78
2022/01/28 06:07:42;;;;;;;11.03;6.23;;;;;;;0.95;87.26;101329.84;5002364;28;20264;-78
2022/01/28 06:10:12;;;;;;;9.68;6.25;;;;;;;0.91;87.27;101334.13;5003510;28;20222;-78
2022/01/28 06:12:42;;;;;;;10.18;5.53;;;;;;;0.87;87.41;101327.22;5005517;28;20288;-78
2022/01/28 06:15:09;;;;;;;7.13;4.50;;;;;;;0.83;87.43;101323.75;5004881;28;20209;-78
2022/01/28 06:17:35;;;;;;;14.10;6.25;;;;;;;0.82;87.15;101331.50;5005422;28;20233;-77
2022/01/28 06:20:05;;;;;;;10.83;5.60;;;;;;;0.77;87.44;101330.63;5005494;28;20226;-77
2022/01/28 06:22:31;;;;;;;6.55;5.07;;;;;;;0.75;87.35;101342.69;5003737;28;20431;-78
2022/01/28 06:24:56;;;;;;;8.70;5.20;;;;;;;0.73;87.53;101354.72;5003042;28;20525;-78
2022/01/28 06:27:22;;;;;;;7.50;5.77;;;;;;;0.73;87.57;101349.56;5005555;28;20214;-78
2022/01/28 06:29:49;;;;;;;9.25;5.43;;;;;;;0.73;87.54;101358.22;5014854;28;20268;-78
2022/01/28 06:32:16;;;;;;;8.52;5.55;;;;;;;0.74;87.65;101365.09;5006625;28;20209;-78
2022/01/28 06:34:42;;;;;;;11.00;6.65;;;;;;;0.78;87.43;101381.50;5014890;28;20208;-78
2022/01/28 06:37:07;;;;;;;10.27;7.53;;;;;;;0.80;87.42;101383.22;5009997;28;20986;-78
2022/01/28 06:39:33;;;;;;;10.13;6.73;;;;;;;0.84;87.43;101397.06;5014935;28;20222;-78
2022/01/28 06:41:59;;;;;;;7.90;5.80;;;;;;;0.86;87.33;101396.22;5003831;28;20202;-78
2022/01/28 06:44:25;;;;;;;8.55;5.97;;;;;;;0.89;87.14;101390.16;5004403;28;20217;-78
2022/01/28 06:46:51;;;;;;;9.53;5.53;;;;;;;0.90;87.20;101389.31;5005820;28;20207;-78
2022/01/28 06:49:17;;;;;;;7.55;5.63;;;;;;;0.91;87.21;101397.94;5008465;28;20584;-78
2022/01/28 06:51:43;;;;;;;11.00;6.73;;;;;;;0.90;87.30;101404.00;5010873;28;20297;-78
2022/01/28 06:54:08;;;;;;;9.70;7.30;;;;;;;0.91;87.21;101401.38;5015232;28;20485;-78
2022/01/28 06:56:34;;;;;;;8.30;6.80;;;;;;;0.91;87.21;101391.03;5014652;28;20715;-78
2022/01/28 06:58:59;;;;;;;10.63;7.00;;;;;;;0.91;87.20;101397.94;5008300;28;20280;-78
2022/01/28 07:01:25;;;;;;;11.32;6.70;;;;;;;0.93;87.34;101402.28;5014140;28;20497;-78
2022/01/28 07:03:50;;;;;;;9.80;6.13;;;;;;;0.92;87.52;101410.91;5011412;28;20221;-78
2022/01/28 07:06:16;;;;;;;8.60;6.17;;;;;;;0.90;87.58;101415.19;5009599;28;20296;-78
2022/01/28 07:08:41;;;;;;;7.17;5.27;;;;;;;0.92;87.62;101412.59;5010459;28;20253;-78
2022/01/28 07:11:06;;;;;;;11.50;6.33;;;;;;;0.94;87.41;101409.16;5012743;28;20432;-78
2022/01/28 07:13:32;;;;;;;13.47;7.23;;;;;;;0.96;87.26;101419.53;5015390;28;20492;-78
2022/01/28 07:15:58;;;;;;;9.43;6.27;;;;;;;0.96;87.16;101415.22;5006371;28;20366;-78
2022/01/28 07:18:24;;;;;;;10.98;7.72;;;;;;;0.96;87.47;101422.97;5007884;28;20683;-78
2022/01/28 07:20:49;;;;;;;11.77;6.10;;;;;;;0.97;87.52;101436.78;5011051;28;20313;-78
2022/01/28 07:23:15;;;;;;;14.67;9.30;;;;;;;0.97;87.34;101429.88;5008384;28;20859;-78
2022/01/28 07:25:41;;;;;;;11.53;7.90;;;;;;;0.99;87.43;101429.88;5021165;28;20337;-78
2022/01/28 07:28:06;;;;;;;14.80;9.07;;;;;;;1.01;87.49;101438.53;5002002;28;20539;-77
2022/01/28 07:30:32;;;;;;;14.85;10.48;;;;;;;1.09;87.31;101439.44;5000999;28;20510;-77
2022/01/28 07:32:59;;;;;;;12.63;8.27;;;;;;;1.09;87.52;101434.25;5006322;28;20335;-78
2022/01/28 07:35:25;;;;;;;8.50;6.97;;;;;;;1.06;87.68;101424.75;4999453;28;20206;-77
2022/01/28 07:37:50;;;;;;;9.93;7.30;;;;;;;1.05;87.47;101435.97;5015149;28;20628;-78
2022/01/28 07:40:16;;;;;;;9.87;7.00;;;;;;;1.05;87.49;101435.97;5002811;28;20225;-78
2022/01/28 07:42:42;;;;;;;13.13;7.93;;;;;;;1.06;87.41;101436.84;5005975;28;20213;-78
2022/01/28 07:45:10;;;;;;;7.07;6.20;;;;;;;1.07;87.30;101442.00;4985778;28;20238;-77
2022/01/28 07:47:38;;;;;;;11.30;7.68;;;;;;;1.09;87.43;101435.13;5017904;28;20289;-78
2022/01/28 07:50:05;;;;;;;9.40;6.47;;;;;;;1.12;87.32;101447.22;5011756;28;20239;-78
2022/01/28 07:52:30;;;;;;;9.73;7.10;;;;;;;1.14;87.21;101447.22;5005887;28;20230;-78
2022/01/28 07:54:56;;;;;;;14.70;8.87;;;;;;;1.16;87.26;101450.66;5009365;28;20291;-78
2022/01/28 07:57:21;;;;;;;15.63;10.07;;;;;;;1.17;87.15;101444.66;5007811;28;20211;-77
2022/01/28 07:59:46;;;;;;;15.53;9.50;;;;;;;1.15;87.15;101452.41;4999034;28;20582;-77
2022/01/28 08:02:12;;;;;;;12.37;9.60;;;;;;;1.12;87.11;101448.94;5007740;28;20838;-78
2022/01/28 08:04:38;;;;;;;12.60;8.53;;;;;;;1.08;87.24;101451.50;5006882;28;20253;-77
2022/01/28 08:07:04;;;;;;;16.45;9.38;;;;;;;1.05;87.25;101456.69;5003529;28;20202;-78
2022/01/28 08:09:29;;;;;;;13.67;8.03;;;;;;;1.04;87.14;101470.47;5007075;28;20246;-78
2022/01/28 08:11:55;;;;;;;12.60;7.30;;;;;;;1.04;87.38;101467.00;5011496;28;20281;-78
2022/01/28 08:14:20;;;;;;;14.00;8.00;;;;;;;1.08;87.38;101486.84;5002603;28;20202;-78
2022/01/28 08:16:46;;;;;;;15.00;9.70;;;;;;;1.13;87.05;101487.75;5008118;28;20747;-78
2022/01/28 08:19:11;;;;;;;14.37;8.20;;;;;;;1.22;87.19;101484.38;5008702;28;20202;-78
2022/01/28 08:21:36;;;;;;;13.30;8.40;;;;;;;1.28;87.04;101486.97;5008369;28;20203;-78
2022/01/28 08:24:02;;;;;;;16.07;8.07;;;;;;;1.32;86.69;101479.25;5008748;28;20210;-78
2022/01/28 08:26:27;;;;;;;15.83;8.80;;;;;;;1.40;86.87;101484.44;5006456;28;20202;-78
2022/01/28 08:28:53;;;;;;;17.03;9.50;;;;;;;1.49;86.62;101484.47;5002369;28;20565;-78
2022/01/28 08:31:19;;;;;;;17.50;10.07;;;;;;;1.63;86.30;101481.06;5007684;28;20508;-78
2022/01/28 08:33:45;;;;;;;13.43;9.07;;;;;;;1.73;86.32;101478.50;5008717;28;20206;-78
2022/01/28 08:36:11;;;;;;;17.10;9.57;;;;;;;1.87;85.97;101488.06;5005003;28;20493;-78
2022/01/28 08:38:43;;;;;;;14.60;10.57;;;;;;;1.96;85.68;101491.50;5008198;28;20210;-78
2022/01/28 08:41:11;;;;;;;16.13;8.55;;;;;;;2.05;85.45;101489.78;5010606;28;20533;-78
2022/01/28 08:43:37;;;;;;;15.02;8.85;;;;;;;2.12;85.22;101499.31;5008220;28;20684;-78
2022/01/28 08:46:03;;;;;;;14.57;10.00;;;;;;;2.21;85.04;101512.28;5016208;28;20252;-78
2022/01/28 08:48:28;;;;;;;12.60;8.98;;;;;;;2.28;84.70;101514.03;4997749;28;20214;-78
2022/01/28 08:50:54;;;;;;;13.90;8.47;;;;;;;2.31;84.89;101508.84;5009741;28;20267;-78
2022/01/28 08:53:19;;;;;;;11.73;8.23;;;;;;;2.36;84.58;101517.50;5013096;28;20681;-78
2022/01/28 08:55:45;;;;;;;12.13;8.10;;;;;;;2.35;84.25;101525.25;5014868;28;20504;-78
2022/01/28 08:58:11;;;;;;;12.00;8.27;;;;;;;2.24;84.10;101527.84;5013095;28;20202;-78
2022/01/28 09:00:37;;;;;;;15.93;11.82;;;;;;;2.26;84.52;101536.50;5020931;28;20477;-78
2022/01/28 09:03:03;;;;;;;20.95;12.00;;;;;;;2.13;84.44;101527.84;5008910;28;20222;-78
2022/01/28 09:05:29;;;;;;;13.68;10.80;;;;;;;2.03;84.82;101523.50;5013249;28;20221;-78
2022/01/28 09:07:55;;;;;;;14.77;10.57;;;;;;;1.97;84.89;101520.88;5014491;28;20645;-78
2022/01/28 09:10:25;;;;;;;16.87;9.73;;;;;;;1.87;85.05;101538.16;5016477;28;20567;-78
2022/01/28 09:15:33;;;;;;;17.52;8.10;;;;;;;1.83;85.21;101532.94;5009436;28;20218;-78
2022/01/28 09:17:59;;;;;;;13.70;9.82;;;;;;;1.83;85.50;101538.13;5007617;28;20669;-78
2022/01/28 09:20:24;;;;;;;19.23;9.60;;;;;;;1.82;85.26;101547.63;5010734;28;20229;-78
2022/01/28 09:22:51;;;;;;;18.65;8.05;;;;;;;1.85;85.07;101544.19;5005167;28;20578;-78
2022/01/28 09:25:17;;;;;;;14.47;9.50;;;;;;;1.88;85.44;101550.22;5013237;28;20253;-78
2022/01/28 09:27:42;;;;;;;13.50;8.87;;;;;;;1.93;84.94;101543.34;5017996;28;20680;-78
2022/01/28 09:30:08;;;;;;;18.37;10.37;;;;;;;1.96;85.09;101543.34;5016058;28;20303;-78
2022/01/28 09:32:34;;;;;;;12.40;8.70;;;;;;;1.98;85.06;101541.63;5012958;28;20220;-78
2022/01/28 09:35:00;;;;;;;13.40;8.97;;;;;;;2.04;85.16;101547.69;5013104;28;20569;-78
2022/01/28 09:37:25;;;;;;;15.18;8.82;;;;;;;2.11;85.12;101534.75;5009917;28;20214;-78
2022/01/28 09:39:51;;;;;;;13.57;9.70;;;;;;;2.18;84.93;101539.06;5012923;28;20230;-78
2022/01/28 09:42:19;;;;;;;18.77;10.63;;;;;;;2.27;84.46;101542.53;5012821;28;20372;-78
2022/01/28 09:44:45;;;;;;;13.85;9.25;;;;;;;2.38;84.75;101540.84;5003673;28;20213;-78
2022/01/28 09:47:11;;;;;;;15.20;9.30;;;;;;;2.48;84.32;101546.88;4993510;28;20199;-78
2022/01/28 09:49:39;;;;;;;13.95;10.63;;;;;;;2.50;84.35;101550.34;5007641;28;20268;-78
2022/01/28 09:52:05;;;;;;;15.20;8.32;;;;;;;2.57;84.14;101557.28;5017363;28;20211;-78
2022/01/28 09:54:31;;;;;;;18.48;10.02;;;;;;;2.65;84.11;101551.22;5018239;28;20301;-78
2022/01/28 09:56:58;;;;;;;11.93;8.00;;;;;;;2.71;84.17;101542.59;5012874;28;20309;-78
2022/01/28 09:59:24;;;;;;;14.27;10.00;;;;;;;2.78;83.88;101546.91;5007133;28;20222;-78
2022/01/28 10:01:54;;;;;;;16.67;11.07;;;;;;;2.91;83.71;101550.34;5018630;28;20487;-77
2022/01/28 10:04:21;;;;;;;22.42;11.77;;;;;;;2.94;83.60;101565.91;5022157;28;20214;-78
2022/01/28 10:06:47;;;;;;;18.38;9.98;;;;;;;3.01;83.50;101564.19;5020647;28;20293;-78
2022/01/28 10:09:16;;;;;;;14.00;8.63;;;;;;;3.10;83.20;101570.22;5007852;28;20230;-78
2022/01/28 10:11:43;;;;;;;16.58;10.05;;;;;;;3.16;83.06;101569.38;5017698;28;20240;-78
2022/01/28 10:14:13;;;;;;;17.98;9.82;;;;;;;3.14;83.04;101568.50;5016792;28;20810;-78
2022/01/28 10:16:39;;;;;;;14.25;9.25;;;;;;;3.07;83.32;101565.03;5010794;28;20333;-78
2022/01/28 10:19:11;;;;;;;12.97;8.90;;;;;;;3.01;83.38;101574.56;5014095;28;20345;-78
2022/01/28 10:21:43;;;;;;;13.77;8.75;;;;;;;2.96;83.52;101571.97;5007318;28;20203;-78
2022/01/28 10:24:16;;;;;;;17.33;9.32;;;;;;;2.95;83.40;101579.78;5011713;28;20203;-78
2022/01/28 10:26:56;;;;;;;17.35;10.80;;;;;;;2.94;83.51;101578.03;5012254;28;20199;-78
2022/01/28 10:29:24;;;;;;;21.02;9.90;;;;;;;2.91;83.42;101588.41;5013325;28;20206;-78
2022/01/28 10:31:59;;;;;;;18.17;12.13;;;;;;;2.96;84.03;101591.88;5006277;28;21126;-78
2022/01/28 10:34:36;;;;;;;13.90;8.68;;;;;;;2.96;83.64;101597.06;5014034;28;20731;-78
2022/01/28 10:37:13;;;;;;;18.58;12.77;;;;;;;3.02;83.39;101600.50;5011735;28;20706;-77
2022/01/28 10:39:59;;;;;;;15.25;9.95;;;;;;;3.04;83.77;101600.53;5016388;28;20236;-77
2022/01/28 10:42:41;;;;;;;11.98;8.93;;;;;;;3.07;83.52;101597.94;5016360;28;20245;-77
2022/01/28 10:45:13;;;;;;;15.45;10.85;;;;;;;3.17;83.27;101591.00;5014610;28;20202;-77
2022/01/28 10:47:56;;;;;;;18.98;11.70;;;;;;;3.22;83.06;101579.75;5027192;28;20296;-77
2022/01/28 10:50:33;;;;;;;15.90;11.32;;;;;;;3.25;82.81;101579.72;5009392;28;20697;-77
2022/01/28 10:53:07;;;;;;;16.30;10.68;;;;;;;3.28;82.93;101589.25;5005801;28;20206;-78
2022/01/28 10:55:38;;;;;;;13.10;10.68;;;;;;;3.31;82.93;101591.84;5011295;28;20325;-78
2022/01/28 10:58:25;;;;;;;21.63;12.55;;;;;;;3.32;82.75;101581.47;5005684;28;20216;-77
2022/01/28 11:01:01;;;;;;;16.80;12.02;;;;;;;3.40;82.65;101576.22;5006872;28;20561;-77
2022/01/28 11:03:27;;;;;;;13.18;8.57;;;;;;;3.34;82.55;101563.25;5004142;28;20203;-77
2022/01/28 11:05:59;;;;;;;12.45;8.60;;;;;;;3.32;82.71;101568.47;5008826;28;20222;-77
2022/01/28 11:08:29;;;;;;;11.75;8.30;;;;;;;3.31;82.89;101573.66;5018320;28;20915;-77
2022/01/28 11:10:55;;;;;;;16.27;10.55;;;;;;;3.32;82.92;101565.88;5013364;28;20245;-77
2022/01/28 11:13:22;;;;;;;13.70;10.03;;;;;;;3.31;82.91;101565.88;5006606;28;20194;-78
2022/01/28 11:15:47;;;;;;;13.18;9.70;;;;;;;3.27;82.77;101565.03;5007542;28;20457;-77
2022/01/28 11:18:14;;;;;;;12.17;9.40;;;;;;;3.18;82.63;101565.00;5007955;28;20257;-77
2022/01/28 11:21:10;;;;;;;13.25;9.70;;;;;;;3.14;83.42;101562.44;5010017;28;20231;-76
2022/01/28 11:26:57;;;;;;;19.15;12.82;;;;;;;3.12;83.56;101561.56;5518297;23;20254;-78
2022/01/28 11:29:25;;;;;;;15.90;11.70;;;;;;;3.18;83.05;101548.56;5024815;28;20293;-78
2022/01/28 11:31:53;;;;;;;16.70;11.57;;;;;;;3.36;83.26;101550.28;5017996;28;20498;-78
2022/01/28 11:34:22;;;;;;;12.20;9.40;;;;;;;3.47;82.81;101538.13;5019344;28;20290;-78
2022/01/28 11:36:47;;;;;;;13.07;9.77;;;;;;;3.55;82.53;101536.34;5012399;28;20203;-78
2022/01/28 11:39:30;;;;;;;14.03;10.43;;;;;;;3.62;82.38;101526.78;5020921;28;20310;-78
2022/01/28 11:42:10;;;;;;;13.60;8.90;;;;;;;3.67;82.21;101523.31;5016901;28;20217;-78
2022/01/28 11:44:51;;;;;;;13.20;8.27;;;;;;;3.73;82.06;101520.69;5019943;28;20241;-78
2022/01/28 11:47:23;;;;;;;21.17;9.50;;;;;;;3.79;81.70;101513.72;5015643;28;20207;-78
2022/01/28 11:49:55;;;;;;;12.82;8.15;;;;;;;3.80;81.44;101503.31;5016806;28;20298;-78
2022/01/28 11:52:33;;;;;;;11.05;7.65;;;;;;;3.95;81.64;101498.03;5018928;28;20206;-79
2022/01/28 11:55:14;;;;;;;11.07;7.07;;;;;;;4.13;80.98;101501.38;5010969;28;20226;-79
2022/01/28 11:58:04;;;;;;;14.20;8.13;;;;;;;4.26;80.20;101503.03;4671244;28;10000701;-78
2022/01/28 12:00:38;;;;;;;13.48;9.40;;;;;;;4.43;79.68;101503.78;5016319;28;20496;-78
2022/01/28 12:03:23;;;;;;;11.00;8.68;;;;;;;4.43;79.57;101503.78;5025417;28;20203;-78
2022/01/28 12:05:48;;;;;;;9.38;8.05;;;;;;;4.39;79.62;101498.59;5020406;28;20213;-78
2022/01/28 12:08:16;;;;;;;12.47;9.30;;;;;;;4.48;79.45;101505.47;5016393;28;20203;-78
2022/01/28 12:10:44;;;;;;;16.25;9.85;;;;;;;4.54;79.14;101501.09;5018368;28;20231;-78
2022/01/28 12:13:13;;;;;;;13.95;9.07;;;;;;;4.59;79.12;101501.91;5018853;28;20222;-78
2022/01/28 12:16:13;;;;;;;12.35;8.88;;;;;;;4.65;78.84;101490.59;5015738;28;20210;-78
2022/01/28 12:18:44;;;;;;;13.20;10.00;;;;;;;4.70;78.52;101487.91;5014239;28;20232;-78
2022/01/28 12:21:18;;;;;;;15.50;9.48;;;;;;;4.78;78.44;101491.31;5016234;28;20250;-78
2022/01/28 12:23:44;;;;;;;13.20;9.82;;;;;;;4.83;78.24;101476.50;5016415;28;21042;-79
2022/01/28 12:26:16;;;;;;;13.93;10.45;;;;;;;4.87;77.56;101480.81;5018222;28;20325;-79
2022/01/28 12:28:53;;;;;;;14.40;9.73;;;;;;;4.92;77.68;101484.25;5014141;28;20317;-78
2022/01/28 12:31:21;;;;;;;15.77;11.90;;;;;;;5.00;77.46;101484.16;5019651;28;20489;-78
2022/01/28 12:33:49;;;;;;;14.48;8.77;;;;;;;4.99;77.31;101483.28;5019090;28;20241;-78
2022/01/28 12:36:30;;;;;;;16.17;9.98;;;;;;;5.02;77.00;101478.06;5015951;28;20203;-78
2022/01/28 12:39:07;;;;;;;12.95;9.60;;;;;;;5.04;76.98;101473.69;5012654;28;20217;-78
2022/01/28 12:42:23;;;;;;;13.88;9.18;;;;;;;5.05;77.01;101466.72;5017135;28;20230;-78
2022/01/28 12:44:23;;;;;;;16.13;9.40;;;;;;;5.03;77.18;101458.94;4998796;28;20250;-78
2022/01/28 12:47:00;;;;;;;11.73;8.82;;;;;;;5.08;76.89;101457.16;5008150;28;20203;-78
2022/01/28 12:49:27;;;;;;;12.38;8.90;;;;;;;5.05;76.63;101456.31;5012400;28;20279;-80
2022/01/28 12:51:56;;;;;;;11.57;7.80;;;;;;;5.02;76.91;101445.94;5018594;28;20582;-79